Time;durP1;ratioP1;P1;durP2;ratioP2;P2;SDS_P1;SDS_P2;PMS_P1;PMS_P2;Temp;Humidity;BMP_temperature;BMP_pressure;BME280_temperature;BME280_humidity;BME280_pressure;Samples;Min_cycle;Max_cycle;Signal;HPM_P1;HPM_P2
2023/09/20 00:00:57;;;;;;;9.63;2.20;;;;;;;-144.73;100.00;54428.22;5030426;28;20056;-72
2023/09/20 00:03:25;;;;;;;11.13;2.70;;;;;;;-144.73;100.00;54463.13;5031494;28;20028;-72
2023/09/20 00:05:51;;;;;;;12.55;2.10;;;;;;;-144.73;100.00;54456.97;5030445;28;20501;-72
2023/09/20 00:08:17;;;;;;;9.52;2.53;;;;;;;-144.73;100.00;54461.06;5031055;28;20028;-72
2023/09/20 00:10:45;;;;;;;6.15;2.00;;;;;;;-144.73;100.00;54432.31;5030820;28;20038;-72
2023/09/20 00:13:12;;;;;;;5.82;2.30;;;;;;;-144.73;100.00;54452.84;5031115;28;20033;-72
2023/09/20 00:15:42;;;;;;;6.13;1.92;;;;;;;-144.73;100.00;54481.59;5030838;28;20041;-72
2023/09/20 00:18:08;;;;;;;7.75;2.38;;;;;;;-144.73;100.00;54424.13;5032613;28;20025;-72
2023/09/20 00:20:35;;;;;;;8.93;2.17;;;;;;;-144.73;100.00;54436.44;5031976;28;20040;-72
2023/09/20 00:23:04;;;;;;;7.28;2.20;;;;;;;-144.73;100.00;54436.44;5030934;28;20021;-72
2023/09/20 00:25:30;;;;;;;10.95;2.22;;;;;;;-144.73;100.00;54436.44;5031111;28;20045;-72
2023/09/20 00:27:55;;;;;;;9.02;2.60;;;;;;;-144.73;100.00;54428.22;5034563;28;20035;-72
2023/09/20 00:30:20;;;;;;;9.93;2.17;;;;;;;-144.73;100.00;54502.13;5034333;28;20099;-72
2023/09/20 00:32:46;;;;;;;9.65;2.38;;;;;;;-144.73;100.00;54465.16;5034828;28;20029;-72
2023/09/20 00:35:14;;;;;;;8.77;2.10;;;;;;;-144.73;100.00;54436.44;5034234;28;20025;-71
2023/09/20 00:37:47;;;;;;;15.65;3.08;;;;;;;-144.73;100.00;54432.31;5035182;28;20036;-72
2023/09/20 00:40:18;;;;;;;8.35;1.98;;;;;;;-144.73;100.00;54432.31;5034114;28;20029;-72
2023/09/20 00:42:49;;;;;;;10.00;2.42;;;;;;;-144.73;100.00;54452.84;5035107;28;20021;-72
2023/09/20 00:45:15;;;;;;;4.68;1.75;;;;;;;-144.73;100.00;54415.91;5034438;28;20049;-72
2023/09/20 00:47:47;;;;;;;8.55;2.20;;;;;;;-144.73;100.00;54448.75;5034787;28;20021;-72
2023/09/20 00:50:14;;;;;;;9.13;2.22;;;;;;;-144.73;100.00;54432.31;5034043;28;20489;-72
2023/09/20 00:52:42;;;;;;;9.23;1.92;;;;;;;-144.73;100.00;54485.69;5035524;28;20025;-72
2023/09/20 00:55:15;;;;;;;5.38;1.77;;;;;;;-144.73;100.00;54448.75;5033684;28;20057;-71
2023/09/20 00:57:45;;;;;;;11.70;2.33;;;;;;;-144.73;100.00;54469.28;5034657;28;20040;-72
2023/09/20 01:00:21;;;;;;;9.93;2.28;;;;;;;-144.73;100.00;54456.97;5035007;28;20029;-72
2023/09/20 01:02:57;;;;;;;8.75;1.98;;;;;;;-144.73;100.00;54469.28;5035603;28;20163;-72
2023/09/20 01:05:25;;;;;;;5.75;1.92;;;;;;;-144.73;100.00;54473.38;5033957;28;20435;-72
2023/09/20 01:07:54;;;;;;;9.48;2.17;;;;;;;-144.73;100.00;54485.69;5035685;28;20021;-72
2023/09/20 01:10:23;;;;;;;15.70;2.42;;;;;;;-144.73;100.00;54440.53;5034632;28;20404;-72
2023/09/20 01:12:54;;;;;;;11.55;2.38;;;;;;;-144.73;100.00;54456.97;5035471;28;20040;-71
2023/09/20 01:15:21;;;;;;;13.18;2.90;;;;;;;-144.73;100.00;54432.31;5033465;28;20029;-72
2023/09/20 01:17:48;;;;;;;11.05;2.03;;;;;;;-144.73;100.00;54395.38;5033735;28;20119;-71
2023/09/20 01:20:14;;;;;;;12.85;2.53;;;;;;;-144.73;100.00;54456.97;5033420;28;20484;-72
2023/09/20 01:22:40;;;;;;;5.82;1.92;;;;;;;-144.73;100.00;54456.97;5033718;28;20025;-72
2023/09/20 01:25:09;;;;;;;14.23;3.13;;;;;;;-144.73;100.00;54481.59;5033546;28;20033;-72
2023/09/20 01:27:35;;;;;;;6.72;2.03;;;;;;;-144.73;100.00;54428.22;5034835;28;20033;-72
2023/09/20 01:30:02;;;;;;;9.50;2.00;;;;;;;-144.73;100.00;54448.75;5033141;28;20025;-72
2023/09/20 01:32:28;;;;;;;12.63;2.42;;;;;;;-144.73;100.00;54469.28;5034956;28;20104;-72
2023/09/20 01:34:55;;;;;;;12.85;2.50;;;;;;;-144.73;100.00;54440.53;5033278;28;20029;-72
2023/09/20 01:37:21;;;;;;;9.30;2.25;;;;;;;-144.73;100.00;54438.50;5032760;28;20056;-72
2023/09/20 01:39:46;;;;;;;17.25;2.88;;;;;;;-144.73;100.00;54432.31;5033257;28;20060;-72
2023/09/20 01:42:12;;;;;;;13.48;2.55;;;;;;;-144.73;100.00;54432.31;5033462;28;20032;-72
2023/09/20 01:44:37;;;;;;;11.27;2.63;;;;;;;-144.73;100.00;54467.22;5033476;28;20022;-71
2023/09/20 01:47:04;;;;;;;6.57;2.40;;;;;;;-144.73;100.00;54450.81;5032737;28;20044;-72
2023/09/20 01:49:32;;;;;;;19.25;4.53;;;;;;;-144.73;100.00;54407.69;5033299;28;20105;-72
2023/09/20 01:51:58;;;;;;;8.88;2.47;;;;;;;-144.73;100.00;54473.38;5032796;28;20029;-72
2023/09/20 01:54:28;;;;;;;11.10;2.40;;;;;;;-144.73;100.00;54461.06;5033356;28;20029;-72
2023/09/20 01:56:55;;;;;;;9.98;3.08;;;;;;;-144.73;100.00;54452.84;5033898;28;20030;-72
2023/09/20 01:59:21;;;;;;;11.18;2.33;;;;;;;-144.73;100.00;54420.00;5034683;28;20056;-72
2023/09/20 02:01:48;;;;;;;10.50;2.53;;;;;;;-144.73;100.00;54432.31;5033745;28;20093;-72
2023/09/20 02:04:18;;;;;;;8.85;2.28;;;;;;;-144.73;100.00;54465.16;5032813;28;20025;-72
2023/09/20 02:06:46;;;;;;;21.88;3.10;;;;;;;-144.73;100.00;54489.81;5032799;28;20084;-72
2023/09/20 02:09:13;;;;;;;17.45;2.58;;;;;;;-144.73;100.00;54428.22;5034274;28;20108;-72
2023/09/20 02:11:38;;;;;;;13.27;2.80;;;;;;;-144.73;100.00;54454.91;5032594;28;20034;-72
2023/09/20 02:14:04;;;;;;;17.25;2.85;;;;;;;-144.73;100.00;54428.22;5033137;28;20096;-72
2023/09/20 02:16:32;;;;;;;10.13;2.65;;;;;;;-144.73;100.00;54448.75;5032056;28;20108;-72
2023/09/20 02:18:57;;;;;;;12.00;2.25;;;;;;;-144.73;100.00;54473.38;5032918;28;20029;-71
2023/09/20 02:21:23;;;;;;;15.90;2.60;;;;;;;-144.73;100.00;54461.06;5032136;28;20108;-72
2023/09/20 02:23:54;;;;;;;13.25;2.72;;;;;;;-144.73;100.00;54428.22;5033430;28;20026;-72
2023/09/20 02:26:19;;;;;;;12.47;3.33;;;;;;;-144.73;100.00;54448.75;5033418;28;20030;-72
2023/09/20 02:28:45;;;;;;;13.02;3.47;;;;;;;-144.73;100.00;54424.13;5032972;28;20829;-72
2023/09/20 02:31:11;;;;;;;10.32;2.90;;;;;;;-144.73;100.00;54448.75;5033045;28;20037;-72
2023/09/20 02:33:38;;;;;;;14.15;2.65;;;;;;;-144.73;100.00;54420.00;5033751;28;20034;-72
2023/09/20 02:36:04;;;;;;;9.77;2.13;;;;;;;-144.73;100.00;54477.47;5032174;28;20045;-72
2023/09/20 02:38:30;;;;;;;13.50;2.95;;;;;;;-144.73;100.00;54440.53;5032185;28;20029;-72
2023/09/20 02:40:57;;;;;;;12.93;3.17;;;;;;;-144.73;100.00;54407.69;5032239;28;20025;-72
2023/09/20 02:43:22;;;;;;;10.00;2.13;;;;;;;-144.73;100.00;54456.97;5033401;28;20021;-72
2023/09/20 02:45:47;;;;;;;9.73;2.55;;;;;;;-144.73;100.00;54440.53;5031741;28;20037;-72
2023/09/20 02:48:14;;;;;;;15.30;2.67;;;;;;;-144.73;100.00;54440.53;5033706;28;20108;-72
2023/09/20 02:50:41;;;;;;;9.90;2.45;;;;;;;-144.73;100.00;54448.75;5032993;28;20038;-72
2023/09/20 02:53:07;;;;;;;11.05;2.40;;;;;;;-144.73;100.00;54463.13;5032443;28;20056;-71
2023/09/20 02:55:32;;;;;;;14.95;2.53;;;;;;;-144.73;100.00;54444.66;5032983;28;20040;-71
2023/09/20 02:57:58;;;;;;;16.48;3.22;;;;;;;-144.73;100.00;54399.50;5033878;28;20071;-71
2023/09/20 03:00:27;;;;;;;15.43;2.42;;;;;;;-144.73;100.00;54436.44;5031562;28;20120;-71
2023/09/20 03:02:57;;;;;;;10.88;2.90;;;;;;;-144.73;100.00;54446.69;5032909;28;20049;-71
2023/09/20 03:05:41;;;;;;;11.70;2.40;;;;;;;-144.73;100.00;54461.06;5031487;28;20116;-71
2023/09/20 03:08:13;;;;;;;14.55;2.88;;;;;;;-144.73;100.00;54475.44;5032923;28;20021;-71
2023/09/20 03:10:41;;;;;;;9.50;2.63;;;;;;;-144.73;100.00;54489.81;5031570;28;20526;-71
2023/09/20 03:13:07;;;;;;;10.52;2.83;;;;;;;-144.73;100.00;54467.22;5031829;28;20175;-73
2023/09/20 03:15:33;;;;;;;9.40;2.63;;;;;;;-144.73;100.00;54444.66;5031245;28;20062;-72
2023/09/20 03:18:05;;;;;;;8.32;2.45;;;;;;;-144.73;100.00;54436.44;5031569;28;20021;-71
2023/09/20 03:20:32;;;;;;;10.02;2.83;;;;;;;-144.73;100.00;54477.47;5030720;28;20077;-71
2023/09/20 03:22:59;;;;;;;8.98;2.40;;;;;;;-144.73;100.00;54469.28;5031674;28;20064;-71
2023/09/20 03:25:28;;;;;;;12.23;2.95;;;;;;;-144.73;100.00;54446.69;5031127;28;20423;-71
2023/09/20 03:27:55;;;;;;;7.40;2.25;;;;;;;-144.73;100.00;54469.28;5032478;28;20107;-73
2023/09/20 03:30:20;;;;;;;12.05;3.15;;;;;;;-144.73;100.00;54485.69;5031224;28;20038;-72
2023/09/20 03:32:47;;;;;;;8.68;2.60;;;;;;;-144.73;100.00;54456.97;5031640;28;20468;-72
2023/09/20 03:35:13;;;;;;;11.02;2.88;;;;;;;-144.73;100.00;54465.16;5030926;28;20061;-71
2023/09/20 03:37:40;;;;;;;13.02;2.70;;;;;;;-144.73;100.00;54448.75;5031515;28;20024;-71
2023/09/20 03:40:10;;;;;;;10.80;3.22;;;;;;;-144.73;100.00;54452.84;5031551;28;20396;-71
2023/09/20 03:42:41;;;;;;;12.95;3.30;;;;;;;-144.73;100.00;54456.97;5032093;28;20043;-72
2023/09/20 03:45:10;;;;;;;12.18;3.20;;;;;;;-144.73;100.00;54432.31;5030714;28;20030;-71
2023/09/20 03:47:38;;;;;;;15.85;3.30;;;;;;;-144.73;100.00;54481.59;5031068;28;20021;-71
2023/09/20 03:50:12;;;;;;;11.23;2.97;;;;;;;-144.73;100.00;54456.97;5030540;28;20029;-71
2023/09/20 03:52:38;;;;;;;14.52;2.78;;;;;;;-144.73;100.00;54461.06;5031257;28;20084;-72
2023/09/20 03:55:05;;;;;;;13.65;2.92;;;;;;;-144.73;100.00;54420.00;5030980;28;20029;-71
2023/09/20 03:57:31;;;;;;;8.32;3.00;;;;;;;-144.73;100.00;54440.53;5032646;28;20065;-71
2023/09/20 03:59:59;;;;;;;11.23;2.58;;;;;;;-144.73;100.00;54407.69;5030552;28;20109;-73
2023/09/20 04:02:26;;;;;;;9.25;2.80;;;;;;;-144.73;100.00;54440.53;5031494;28;20025;-71
2023/09/20 04:04:55;;;;;;;14.68;3.28;;;;;;;-144.73;100.00;54452.84;5030664;28;20057;-72
2023/09/20 04:07:26;;;;;;;10.63;2.88;;;;;;;-144.73;100.00;54481.59;5031030;28;20053;-72
2023/09/20 04:09:52;;;;;;;8.82;2.38;;;;;;;-144.73;100.00;54440.53;5030770;28;20113;-72
2023/09/20 04:12:17;;;;;;;23.08;4.50;;;;;;;-144.73;100.00;54436.44;5031440;28;20053;-72
2023/09/20 04:14:42;;;;;;;18.80;3.60;;;;;;;-144.73;100.00;54477.47;5031718;28;20021;-71
2023/09/20 04:17:08;;;;;;;17.33;3.75;;;;;;;-144.73;100.00;54436.44;5031974;28;20085;-72
2023/09/20 04:19:34;;;;;;;11.75;2.35;;;;;;;-144.73;100.00;54461.06;5030941;28;20056;-71
2023/09/20 04:22:04;;;;;;;15.48;3.42;;;;;;;-144.73;100.00;54481.59;5030272;28;20078;-72
2023/09/20 04:24:33;;;;;;;13.52;3.25;;;;;;;-144.73;100.00;54432.31;5031966;28;20030;-72
2023/09/20 04:26:59;;;;;;;11.07;3.30;;;;;;;-144.73;100.00;54454.91;5030323;28;20037;-71
2023/09/20 04:29:25;;;;;;;9.77;2.70;;;;;;;-144.73;100.00;54440.53;5032207;28;20029;-72
2023/09/20 04:31:52;;;;;;;14.20;3.70;;;;;;;-144.73;100.00;54459.00;5030409;28;20113;-71
2023/09/20 04:34:18;;;;;;;11.00;3.08;;;;;;;-144.73;100.00;54444.66;5031066;28;20025;-72
2023/09/20 04:36:45;;;;;;;10.45;3.17;;;;;;;-144.73;100.00;54450.81;5030332;28;20060;-71
2023/09/20 04:39:14;;;;;;;8.32;2.72;;;;;;;-144.73;100.00;54434.38;5031979;28;20472;-72
2023/09/20 04:41:39;;;;;;;7.68;2.45;;;;;;;-144.73;100.00;54473.38;5031675;28;20036;-72
2023/09/20 04:44:05;;;;;;;11.52;3.03;;;;;;;-144.73;100.00;54473.38;5030583;28;20029;-72
2023/09/20 04:46:34;;;;;;;16.58;2.60;;;;;;;-144.73;100.00;54481.59;5031038;28;20044;-71
2023/09/20 04:48:59;;;;;;;9.82;2.53;;;;;;;-144.73;100.00;54473.38;5030693;28;20068;-71
2023/09/20 04:51:26;;;;;;;12.77;3.58;;;;;;;-144.73;100.00;54426.16;5029511;28;20033;-72
2023/09/20 04:53:52;;;;;;;14.25;3.33;;;;;;;-144.73;100.00;54465.16;5030941;28;20021;-72
2023/09/20 04:56:17;;;;;;;14.93;2.85;;;;;;;-144.73;100.00;54477.47;5029931;28;20052;-72
2023/09/20 04:58:42;;;;;;;12.63;2.92;;;;;;;-144.73;100.00;54424.13;5030754;28;20121;-72
2023/09/20 05:01:14;;;;;;;10.00;3.05;;;;;;;-144.73;100.00;54469.28;5030322;28;20030;-72
2023/09/20 05:03:40;;;;;;;14.40;3.30;;;;;;;-144.73;100.00;54424.13;5030426;28;20079;-71
2023/09/20 05:06:06;;;;;;;12.68;3.25;;;;;;;-144.73;100.00;54473.38;5030951;28;20046;-72
2023/09/20 05:08:31;;;;;;;13.05;3.08;;;;;;;-144.73;100.00;54444.66;5032136;28;20017;-72
2023/09/20 05:10:57;;;;;;;11.02;3.78;;;;;;;-144.73;100.00;54442.59;5029854;28;20049;-72
2023/09/20 05:13:22;;;;;;;13.43;3.45;;;;;;;-144.73;100.00;54454.91;5032638;28;20057;-71
2023/09/20 05:15:50;;;;;;;7.35;2.50;;;;;;;-144.73;100.00;54444.66;5033631;28;20041;-72
2023/09/20 05:18:16;;;;;;;15.27;3.45;;;;;;;-144.73;100.00;54448.75;5034221;28;20045;-71
2023/09/20 05:20:42;;;;;;;12.52;2.80;;;;;;;-144.73;100.00;54456.97;5033273;28;20504;-72
2023/09/20 05:23:08;;;;;;;11.23;3.42;;;;;;;-144.73;100.00;54448.75;5034938;28;20021;-72
2023/09/20 05:25:34;;;;;;;15.05;3.70;;;;;;;-144.73;100.00;54444.66;5032833;28;20508;-72
2023/09/20 05:28:00;;;;;;;13.02;3.20;;;;;;;-144.73;100.00;54415.91;5035005;28;20033;-72
2023/09/20 05:30:26;;;;;;;18.77;3.38;;;;;;;-144.73;100.00;54436.44;5033336;28;20511;-72
2023/09/20 05:32:53;;;;;;;18.48;3.60;;;;;;;-144.73;100.00;54436.44;5034905;28;20075;-72
2023/09/20 05:35:18;;;;;;;19.63;3.60;;;;;;;-144.73;100.00;54454.91;5034176;28;20063;-72
2023/09/20 05:37:45;;;;;;;9.52;2.78;;;;;;;-144.73;100.00;54442.59;5033954;28;20025;-72
2023/09/20 05:40:17;;;;;;;15.13;3.75;;;;;;;-144.73;100.00;54485.69;5032876;28;20068;-72
2023/09/20 05:42:51;;;;;;;16.80;3.38;;;;;;;-144.73;100.00;54436.44;5034624;28;20014;-72
2023/09/20 05:45:20;;;;;;;12.30;3.10;;;;;;;-144.73;100.00;54424.13;5032875;28;20064;-72
2023/09/20 05:47:45;;;;;;;10.07;3.67;;;;;;;-144.73;100.00;54467.22;5033474;28;20075;-72
2023/09/20 05:50:13;;;;;;;13.68;3.30;;;;;;;-144.73;100.00;54438.50;5032962;28;20025;-73
2023/09/20 05:52:45;;;;;;;16.90;3.95;;;;;;;-144.73;100.00;54444.66;5033545;28;20033;-72
2023/09/20 05:55:14;;;;;;;17.80;3.35;;;;;;;-144.73;100.00;54465.16;5032696;28;20033;-72
2023/09/20 05:57:43;;;;;;;8.82;3.08;;;;;;;-144.73;100.00;54450.81;5033559;28;20025;-72
2023/09/20 06:00:21;;;;;;;18.77;3.28;;;;;;;-144.73;100.00;54461.06;5033898;28;20496;-72
2023/09/20 06:02:47;;;;;;;19.05;3.70;;;;;;;-144.73;100.00;54465.16;5033126;28;20053;-72
2023/09/20 06:05:14;;;;;;;17.80;4.70;;;;;;;-144.73;100.00;54454.91;5032636;28;20040;-71
2023/09/20 06:07:40;;;;;;;10.32;2.92;;;;;;;-144.73;100.00;54428.22;5033442;28;20036;-72
2023/09/20 06:10:09;;;;;;;15.32;3.08;;;;;;;-144.73;100.00;54444.66;5033860;28;20038;-72
2023/09/20 06:12:35;;;;;;;13.13;2.97;;;;;;;-144.73;100.00;54456.97;5033023;28;20072;-71
2023/09/20 06:15:01;;;;;;;19.05;3.45;;;;;;;-144.73;100.00;54452.84;5032414;28;20022;-72
2023/09/20 06:17:31;;;;;;;10.80;3.15;;;;;;;-144.73;100.00;54465.16;5034137;28;20013;-71
2023/09/20 06:20:00;;;;;;;12.57;3.00;;;;;;;-144.73;100.00;54440.53;5032344;28;20228;-72
2023/09/20 06:22:29;;;;;;;15.98;3.35;;;;;;;-144.73;100.00;54424.13;5034494;28;20038;-72
2023/09/20 06:24:58;;;;;;;10.60;3.53;;;;;;;-144.73;100.00;54436.44;5032819;28;20036;-73
2023/09/20 06:27:30;;;;;;;10.90;2.78;;;;;;;-144.73;100.00;54446.69;5032792;28;20075;-72
2023/09/20 06:30:13;;;;;;;9.70;2.47;;;;;;;-144.73;100.00;54422.06;5033246;28;20025;-72
2023/09/20 06:32:43;;;;;;;10.43;2.85;;;;;;;-144.73;100.00;54465.16;5033795;28;20053;-72
2023/09/20 06:35:09;;;;;;;12.73;3.40;;;;;;;-144.73;100.00;54436.44;5032023;28;20037;-72
2023/09/20 06:37:35;;;;;;;11.27;3.13;;;;;;;-144.73;100.00;54461.06;5032864;28;20453;-72
2023/09/20 06:40:03;;;;;;;10.38;2.90;;;;;;;-144.73;100.00;54415.91;5033387;28;20027;-72
2023/09/20 06:42:30;;;;;;;13.38;3.38;;;;;;;-144.73;100.00;54471.31;5032715;28;20036;-72
2023/09/20 06:44:56;;;;;;;15.57;3.63;;;;;;;-144.73;100.00;54442.59;5032122;28;20026;-73
2023/09/20 06:47:24;;;;;;;17.42;2.70;;;;;;;-144.73;100.00;54432.31;5032465;28;20115;-72
2023/09/20 06:49:51;;;;;;;18.35;3.20;;;;;;;-144.73;100.00;54456.97;5032289;28;20025;-72
2023/09/20 06:52:17;;;;;;;12.23;2.97;;;;;;;-144.73;100.00;54465.16;5032438;28;20036;-73
2023/09/20 06:54:44;;;;;;;17.15;3.35;;;;;;;-144.73;100.00;54452.84;5032286;28;20021;-72
2023/09/20 06:57:17;;;;;;;14.25;2.88;;;;;;;-144.73;100.00;54456.97;5031660;28;20017;-72
2023/09/20 06:59:44;;;;;;;13.50;3.10;;;;;;;-144.73;100.00;54436.44;5031480;28;20084;-72
2023/09/20 07:02:12;;;;;;;8.20;2.50;;;;;;;-144.73;100.00;54477.47;5030970;28;20086;-72
2023/09/20 07:04:39;;;;;;;11.23;3.35;;;;;;;-144.73;100.00;54432.31;5032352;28;20082;-71
2023/09/20 07:07:05;;;;;;;8.30;2.60;;;;;;;-144.73;100.00;54463.13;5031806;28;20033;-73
2023/09/20 07:09:31;;;;;;;9.02;2.92;;;;;;;-144.73;100.00;54461.06;5031389;28;20055;-72
2023/09/20 07:11:57;;;;;;;16.95;3.40;;;;;;;-144.73;100.00;54475.44;5031933;28;20030;-73
2023/09/20 07:14:25;;;;;;;15.57;2.97;;;;;;;-144.73;100.00;54428.22;5032654;28;20040;-71
2023/09/20 07:16:51;;;;;;;9.52;3.40;;;;;;;-144.73;100.00;54481.59;5030513;28;20033;-71
2023/09/20 07:19:18;;;;;;;17.08;3.00;;;;;;;-144.73;100.00;54473.38;5032632;28;20548;-72
2023/09/20 07:21:47;;;;;;;17.17;3.00;;;;;;;-144.73;100.00;54440.53;5030563;28;20116;-72
2023/09/20 07:24:12;;;;;;;12.82;2.90;;;;;;;-144.73;100.00;54489.81;5030478;28;20077;-72
2023/09/20 07:26:39;;;;;;;15.15;3.25;;;;;;;-144.73;100.00;54452.84;5030874;28;20029;-72
2023/09/20 07:29:05;;;;;;;12.48;3.28;;;;;;;-144.73;100.00;54440.53;5030999;28;20488;-72
2023/09/20 07:31:36;;;;;;;9.90;2.75;;;;;;;-144.73;100.00;54452.84;5031866;28;20424;-72
2023/09/20 07:34:04;;;;;;;13.18;4.07;;;;;;;-144.73;100.00;54436.44;5031776;28;20098;-72
2023/09/20 07:36:33;;;;;;;14.05;3.30;;;;;;;-144.73;100.00;54444.66;5029060;28;20025;-72
2023/09/20 07:38:59;;;;;;;16.35;3.53;;;;;;;-144.73;100.00;54493.91;5030864;28;20026;-72
2023/09/20 07:41:25;;;;;;;12.07;2.95;;;;;;;-144.73;100.00;54407.69;5029783;28;20029;-72
2023/09/20 07:43:53;;;;;;;16.75;3.13;;;;;;;-144.73;100.00;54424.13;5031871;28;20435;-72
2023/09/20 07:46:21;;;;;;;21.20;3.30;;;;;;;-144.73;100.00;54448.75;5029630;28;20052;-73
2023/09/20 07:48:52;;;;;;;14.35;3.08;;;;;;;-144.73;100.00;54450.81;5031093;28;20056;-72
2023/09/20 07:51:23;;;;;;;13.90;3.78;;;;;;;-144.73;100.00;54444.66;5031210;28;20041;-73
2023/09/20 07:53:54;;;;;;;11.98;3.65;;;;;;;-144.73;100.00;54407.69;5031850;28;20033;-73
2023/09/20 07:56:20;;;;;;;15.95;3.28;;;;;;;-144.73;100.00;54428.22;5031396;28;20034;-73
2023/09/20 07:58:47;;;;;;;27.13;4.90;;;;;;;-144.73;100.00;54473.38;5030095;28;20163;-72
2023/09/20 08:01:22;;;;;;;13.48;3.53;;;;;;;-144.73;100.00;54493.91;5026540;28;20566;-72
2023/09/20 08:03:52;;;;;;;19.20;3.75;;;;;;;-144.73;100.00;54420.00;5027182;28;20064;-73
2023/09/20 08:06:18;;;;;;;13.77;3.20;;;;;;;-144.73;100.00;54481.59;5027278;28;20041;-72
2023/09/20 08:08:43;;;;;;;14.35;3.35;;;;;;;-144.73;100.00;54481.59;5028187;28;20029;-73
2023/09/20 08:11:09;;;;;;;17.75;2.83;;;;;;;-144.73;100.00;54432.31;5027423;28;20033;-72
2023/09/20 08:13:35;;;;;;;13.38;3.03;;;;;;;-144.73;100.00;54434.38;5027214;28;20025;-72
2023/09/20 08:16:02;;;;;;;9.63;3.35;;;;;;;-144.73;100.00;54448.75;5027463;28;20057;-71
2023/09/20 08:21:12;;;;;;;11.02;2.92;;;;;;;-144.73;100.00;54440.53;5029696;28;20029;-72
2023/09/20 09:02:15;;;;;;;12.95;2.58;;;;;;;-144.73;100.00;54370.75;5031743;28;20029;-72
2023/09/20 09:04:52;;;;;;;13.98;2.45;;;;;;;-144.73;100.00;54407.69;5031133;28;20026;-72
2023/09/20 09:07:17;;;;;;;13.73;3.33;;;;;;;-144.73;100.00;54420.00;5032352;28;20075;-71
2023/09/20 09:09:43;;;;;;;11.35;2.83;;;;;;;-144.73;100.00;54391.28;5030454;28;20045;-71
2023/09/20 09:12:12;;;;;;;9.70;2.72;;;;;;;-144.73;100.00;54436.44;5031027;28;20017;-70
2023/09/20 09:14:39;;;;;;;12.32;3.03;;;;;;;-144.73;100.00;54407.69;5030035;28;20017;-72
2023/09/20 09:17:09;;;;;;;14.68;2.63;;;;;;;-144.73;100.00;54415.91;5030750;28;20029;-72
2023/09/20 09:19:35;;;;;;;10.85;2.67;;;;;;;-144.73;100.00;54424.13;5030107;28;20034;-72
2023/09/20 09:22:02;;;;;;;9.25;2.53;;;;;;;-144.73;100.00;54475.44;5029728;28;20542;-72
2023/09/20 09:24:30;;;;;;;12.13;2.40;;;;;;;-144.73;100.00;54393.34;5030667;28;20025;-72
2023/09/20 09:27:06;;;;;;;13.57;2.40;;;;;;;-144.73;100.00;54426.16;5032137;28;20086;-72
2023/09/20 09:29:32;;;;;;;7.75;2.30;;;;;;;-144.73;100.00;54428.22;5029768;28;20035;-72
2023/09/20 09:32:00;;;;;;;11.98;2.20;;;;;;;-144.73;100.00;54397.44;5029941;28;20048;-73
2023/09/20 09:34:26;;;;;;;13.23;3.25;;;;;;;-144.73;100.00;54391.28;5030755;28;20022;-71
2023/09/20 09:36:53;;;;;;;9.48;2.50;;;;;;;-144.73;100.00;54415.91;5029501;28;20034;-72
2023/09/20 09:39:18;;;;;;;10.73;2.63;;;;;;;-144.73;100.00;54428.22;5030937;28;20079;-71
2023/09/20 09:41:44;;;;;;;12.77;2.80;;;;;;;-144.73;100.00;54397.44;5029184;28;20049;-72
2023/09/20 09:44:11;;;;;;;5.88;2.47;;;;;;;-144.73;100.00;54452.84;5029543;28;20032;-72
2023/09/20 09:46:40;;;;;;;8.88;2.33;;;;;;;-144.73;100.00;54407.69;5031014;28;20033;-71
2023/09/20 09:49:10;;;;;;;10.90;2.97;;;;;;;-144.73;100.00;54440.53;5031425;28;20121;-72
2023/09/20 09:51:46;;;;;;;8.45;2.13;;;;;;;-144.73;100.00;54422.06;5029869;28;20037;-71
2023/09/20 09:54:15;;;;;;;12.02;2.67;;;;;;;-144.73;100.00;54409.75;5031667;28;20040;-72
2023/09/20 09:56:41;;;;;;;12.10;2.70;;;;;;;-144.73;100.00;54432.31;5029451;28;20186;-71
2023/09/20 09:59:07;;;;;;;7.05;2.15;;;;;;;-144.73;100.00;54374.84;5029211;28;20108;-72
2023/09/20 10:01:37;;;;;;;11.52;2.53;;;;;;;-144.73;100.00;54383.06;5028643;28;20096;-72
2023/09/20 10:04:13;;;;;;;9.20;2.42;;;;;;;-144.73;100.00;54426.16;5030959;28;20060;-72
2023/09/20 10:06:44;;;;;;;9.65;3.38;;;;;;;-144.73;100.00;54411.81;5031170;28;20099;-71
2023/09/20 10:09:10;;;;;;;;;;;;;;;-144.73;100.00;54374.84;5031685;28;20040;-73
2023/09/20 10:11:37;;;;;;;9.05;2.63;;;;;;;-144.73;100.00;54407.69;5028589;28;19913;-72
2023/09/20 10:14:07;;;;;;;9.32;3.03;;;;;;;-144.73;100.00;54440.53;5029897;28;20053;-72
2023/09/20 10:16:42;;;;;;;11.15;2.55;;;;;;;-144.73;100.00;54415.91;5030461;28;20022;-72
2023/09/20 10:19:11;;;;;;;25.63;4.15;;;;;;;-144.73;100.00;54432.31;5029244;28;20025;-72
2023/09/20 10:21:39;;;;;;;10.50;2.45;;;;;;;-144.73;100.00;54413.84;5028375;28;20128;-73
2023/09/20 10:24:09;;;;;;;11.25;2.70;;;;;;;-144.73;100.00;54411.81;5030180;28;20033;-73
2023/09/20 10:26:38;;;;;;;5.57;2.42;;;;;;;-144.73;100.00;54424.13;5028971;28;20102;-73
2023/09/20 10:29:25;;;;;;;15.23;2.78;;;;;;;-144.73;100.00;54420.00;5029408;28;20378;-72
2023/09/20 10:31:55;;;;;;;18.80;3.08;;;;;;;-144.73;100.00;54424.13;5030217;28;20038;-73
2023/09/20 10:34:21;;;;;;;8.70;2.53;;;;;;;-144.73;100.00;54362.53;5030069;28;20021;-72
2023/09/20 10:36:53;;;;;;;9.13;3.25;;;;;;;-144.73;100.00;54415.91;5028636;28;20030;-72
2023/09/20 10:39:19;;;;;;;15.38;3.40;;;;;;;-144.73;100.00;54395.38;5028278;28;20029;-71
2023/09/20 10:41:46;;;;;;;11.35;3.42;;;;;;;-144.73;100.00;54415.91;5028367;28;20642;-72
2023/09/20 10:44:30;;;;;;;10.13;2.92;;;;;;;-144.73;100.00;54391.28;5028276;28;20079;-72
2023/09/20 10:47:04;;;;;;;22.48;3.78;;;;;;;-144.73;100.00;54391.28;5029145;28;20392;-72
2023/09/20 10:49:49;;;;;;;8.77;3.05;;;;;;;-144.73;100.00;54374.84;5028211;28;20022;-73
2023/09/20 10:52:33;;;;;;;13.70;3.40;;;;;;;-144.73;100.00;54436.44;5028614;28;20084;-73
2023/09/20 10:55:28;;;;;;;10.10;3.65;;;;;;;-144.73;100.00;54385.13;5028145;28;20087;-73
2023/09/20 10:57:56;;;;;;;11.00;3.13;;;;;;;-144.73;100.00;54428.22;5029263;28;20025;-72
2023/09/20 11:00:30;;;;;;;8.60;2.90;;;;;;;-144.73;100.00;54378.97;5027870;28;20037;-74
2023/09/20 11:02:57;;;;;;;13.45;3.83;;;;;;;-144.73;100.00;54428.22;5029600;28;20071;-71
2023/09/20 11:05:26;;;;;;;11.85;3.63;;;;;;;-144.73;100.00;54407.69;5029737;28;20057;-73
2023/09/20 11:07:53;;;;;;;11.32;3.70;;;;;;;-144.73;100.00;54409.75;5029951;28;20021;-73
2023/09/20 11:10:19;;;;;;;20.90;3.72;;;;;;;-144.73;100.00;54348.19;5027374;28;20029;-73
2023/09/20 11:12:45;;;;;;;8.68;3.20;;;;;;;-144.73;97.46;54372.81;5028241;28;20492;-73
2023/09/20 11:15:10;;;;;;;16.27;3.75;;;;;;;-144.73;95.37;54428.22;5027831;28;20067;-73
2023/09/20 11:17:36;;;;;;;20.13;4.38;;;;;;;-144.73;97.24;54465.16;5030127;28;20039;-72
2023/09/20 11:20:04;;;;;;;13.80;4.07;;;;;;;-144.73;96.96;54378.97;5027244;28;20032;-73
2023/09/20 11:22:34;;;;;;;15.50;3.05;;;;;;;-144.73;97.26;54368.69;5028363;28;20136;-72
2023/09/20 11:25:00;;;;;;;14.68;3.63;;;;;;;-144.73;96.67;54473.38;5001962;28;20046;-73
2023/09/20 11:27:27;;;;;;;16.10;3.97;;;;;;;-144.73;100.00;54422.06;5028293;28;20025;-73
2023/09/20 11:30:04;;;;;;;15.02;5.35;;;;;;;-144.73;99.84;54391.28;5027477;28;20061;-74
2023/09/20 11:32:29;;;;;;;17.63;3.85;;;;;;;-144.73;100.00;54391.28;5028153;28;20392;-73
2023/09/20 11:34:55;;;;;;;11.43;3.42;;;;;;;-144.73;96.87;54387.19;5027515;28;20041;-73
2023/09/20 11:37:22;;;;;;;10.45;3.60;;;;;;;-144.73;91.50;54391.28;5028894;28;20052;-72
2023/09/20 11:39:49;;;;;;;14.10;3.35;;;;;;;-144.73;90.97;54444.66;5028041;28;20033;-72
2023/09/20 11:42:26;;;;;;;10.70;3.05;;;;;;;-144.73;89.66;54366.66;5027750;28;20013;-73
2023/09/20 11:45:21;;;;;;;12.65;3.83;;;;;;;-144.73;89.41;54374.84;5026847;28;20041;-72
2023/09/20 11:47:48;;;;;;;10.55;3.55;;;;;;;-144.73;91.81;54370.75;5024155;28;20033;-72
2023/09/20 11:50:14;;;;;;;10.18;3.25;;;;;;;-144.73;88.22;54374.84;5028009;28;20034;-72